F/v_l'omerta — FHXG — position and weather

sailwx.info

Track history (hours):
 
Tides and Currents Weather Stations Pressure Air Temp Water Temp Dewpoint Dewpoint Depression Visibility Wind Speed Wind Dir Waves Ship Positions

F/v_l'omerta

Last reported at 2017-Mar-30 14:34 UTC. Time now 2017-Mar-30 14:33 UTC.
Position N 46°18' W 002°12'.

Length 18 m.

Type: Fishing. MMSI: 227903000.

Date/timePositionNaut miles runAvg speedWind from/ knotsBaromVisibWave heightAir tempDewpointWater temp
2017-Mar-30 14:34N 46°18' W 002°12'2 1.9
2017-Mar-30 13:34N 46°17' W 002°14'3 3.1
2017-Mar-30 12:29N 46°14' W 002°15'3 3.1
2017-Mar-30 11:32N 46°15' W 002°18'3 3.2
2017-Mar-30 10:34N 46°17' W 002°21'3 1.0
2017-Mar-30 07:33N 46°15' W 002°18'3 3.2
2017-Mar-30 06:33N 46°18' W 002°20'3 2.9
2017-Mar-30 05:33N 46°19' W 002°16'3 3.0
2017-Mar-30 04:26N 46°22' W 002°15'5 3.6
2017-Mar-30 03:07N 46°26' W 002°20'2 3.6
2017-Mar-30 02:33N 46°26' W 002°23'18 2.6
2017-Mar-29 19:32N 46°40' W 002°40'3 3.3
2017-Mar-29 18:30N 46°42' W 002°44'3 2.8
2017-Mar-29 17:33N 46°41' W 002°47'2 1.8
2017-Mar-29 16:26N 46°43' W 002°46'4 3.0
2017-Mar-29 15:16N 46°44' W 002°41'2 2.9
2017-Mar-29 14:32N 46°42' W 002°42'2 2.2
2017-Mar-29 13:32N 46°43' W 002°45'3 2.8
2017-Mar-29 12:33N 46°44' W 002°42'3 3.1
2017-Mar-29 11:33N 46°41' W 002°42'4 3.8
2017-Mar-29 10:33N 46°38' W 002°40'4 3.3
2017-Mar-29 09:30N 46°34' W 002°38'10 3.4
2017-Mar-29 06:33N 46°28' W 002°26'2 1.8
2017-Mar-29 05:34N 46°27' W 002°24'3 3.4
2017-Mar-29 04:34N 46°29' W 002°28'4 3.5
2017-Mar-29 03:34N 46°33' W 002°25'3 3.3
2017-Mar-29 02:32N 46°35' W 002°23'2 2.3
2017-Mar-29 01:30N 46°37' W 002°20'3 3.0
2017-Mar-29 00:23N 46°34' W 002°22'2 2.1
2017-Mar-28 23:33N 46°34' W 002°24'3 3.2
2017-Mar-28 22:33N 46°36' W 002°21'0 0.3
2017-Mar-28 21:32N 46°36' W 002°22'4 3.5
2017-Mar-28 20:29N 46°33' W 002°25'3 3.1
2017-Mar-28 19:29N 46°35' W 002°29'2 1.2
2017-Mar-28 17:28N 46°35' W 002°32'7 2.3
2017-Mar-28 14:20N 46°28' W 002°34'7 0.4
2017-Mar-27 21:25N 46°28' W 002°24'8 9.4
2017-Mar-27 20:33N 46°28' W 002°13'9 9.5
2017-Mar-27 19:34N 46°28' W 001°59'8 7.8
2017-Mar-27 18:33N 46°30' W 001°48'0 0.2
2017-Mar-27 17:33N 46°30' W 001°47'2 1.9
2017-Mar-27 16:33N 46°29' W 001°50'8 8.2
2017-Mar-27 15:34N 46°31' W 002°01'9 8.5
2017-Mar-27 14:30N 46°34' W 002°13'16 3.1
2017-Mar-27 09:10N 46°34' W 002°37'2 3.4
2017-Mar-27 08:29N 46°36' W 002°35'6 1.1
2017-Mar-27 03:33N 46°33' W 002°27'3 3.4
2017-Mar-27 02:34N 46°32' W 002°22'2 1.1
2017-Mar-27 00:34N 46°35' W 002°23'3 2.6
2017-Mar-26 23:19N 46°35' W 002°19'4 3.4
2017-Mar-26 22:15N 46°32' W 002°21'2 2.4
2017-Mar-26 21:33N 46°33' W 002°20'3 2.7
2017-Mar-26 20:29N 46°36' W 002°20'8 0.6
2017-Mar-26 07:13N 46°28' W 002°23'6 9.3
2017-Mar-26 06:33N 46°28' W 002°14'9 9.4
2017-Mar-26 05:33N 46°28' W 002°00'9 9.0
2017-Mar-26 04:34N 46°29' W 001°47'1 0.9
2017-Mar-26 03:34N 46°30' W 001°47'2 2.3
2017-Mar-26 02:34N 46°29' W 001°50'9 8.5
2017-Mar-26 01:33N 46°32' W 002°02'9 8.6
2017-Mar-26 00:31N 46°35' W 002°14'8 3.7
2017-Mar-25 22:16N 46°33' W 002°26'3 3.2
2017-Mar-25 21:15N 46°35' W 002°29'  
2017-Mar-23 03:30N 46°28' W 002°18'9 9.4
2017-Mar-23 02:34N 46°29' W 002°05'9 9.2
2017-Mar-23 01:33N 46°29' W 001°52'4 3.5
2017-Mar-23 00:34N 46°30' W 001°47'0 0.2
2017-Mar-22 23:34N 46°30' W 001°47'4 3.6
2017-Mar-22 22:33N 46°29' W 001°53'9 9.1
2017-Mar-22 21:33N 46°31' W 002°06'  
Track history (hours):
 
Tides and Currents Weather Stations Pressure Air Temp Water Temp Dewpoint Dewpoint Depression Visibility Wind Speed Wind Dir Waves Ship Positions

F/v_l'omerta

Last reported at 2017-Mar-30 14:34 UTC. Time now 2017-Mar-30 14:33 UTC.
Position N 46°18' W 002°12'.

Length 18 m.

Type: Fishing. MMSI: 227903000.

Date/timePositionNaut miles runAvg speedWind from/ knotsBaromVisibWave heightAir tempDewpointWater temp
2017-Mar-30 14:34N 46°18' W 002°12'2 1.9
2017-Mar-30 13:34N 46°17' W 002°14'3 3.1
2017-Mar-30 12:29N 46°14' W 002°15'3 3.1
2017-Mar-30 11:32N 46°15' W 002°18'3 3.2
2017-Mar-30 10:34N 46°17' W 002°21'3 1.0
2017-Mar-30 07:33N 46°15' W 002°18'3 3.2
2017-Mar-30 06:33N 46°18' W 002°20'3 2.9
2017-Mar-30 05:33N 46°19' W 002°16'3 3.0
2017-Mar-30 04:26N 46°22' W 002°15'5 3.6
2017-Mar-30 03:07N 46°26' W 002°20'2 3.6
2017-Mar-30 02:33N 46°26' W 002°23'18 2.6
2017-Mar-29 19:32N 46°40' W 002°40'3 3.3
2017-Mar-29 18:30N 46°42' W 002°44'3 2.8
2017-Mar-29 17:33N 46°41' W 002°47'2 1.8
2017-Mar-29 16:26N 46°43' W 002°46'4 3.0
2017-Mar-29 15:16N 46°44' W 002°41'2 2.9
2017-Mar-29 14:32N 46°42' W 002°42'2 2.2
2017-Mar-29 13:32N 46°43' W 002°45'3 2.8
2017-Mar-29 12:33N 46°44' W 002°42'3 3.1
2017-Mar-29 11:33N 46°41' W 002°42'4 3.8
2017-Mar-29 10:33N 46°38' W 002°40'4 3.3
2017-Mar-29 09:30N 46°34' W 002°38'10 3.4
2017-Mar-29 06:33N 46°28' W 002°26'2 1.8
2017-Mar-29 05:34N 46°27' W 002°24'3 3.4
2017-Mar-29 04:34N 46°29' W 002°28'4 3.5
2017-Mar-29 03:34N 46°33' W 002°25'3 3.3
2017-Mar-29 02:32N 46°35' W 002°23'2 2.3
2017-Mar-29 01:30N 46°37' W 002°20'3 3.0
2017-Mar-29 00:23N 46°34' W 002°22'2 2.1
2017-Mar-28 23:33N 46°34' W 002°24'3 3.2
2017-Mar-28 22:33N 46°36' W 002°21'0 0.3
2017-Mar-28 21:32N 46°36' W 002°22'4 3.5
2017-Mar-28 20:29N 46°33' W 002°25'3 3.1
2017-Mar-28 19:29N 46°35' W 002°29'2 1.2
2017-Mar-28 17:28N 46°35' W 002°32'7 2.3
2017-Mar-28 14:20N 46°28' W 002°34'7 0.4
2017-Mar-27 21:25N 46°28' W 002°24'8 9.4
2017-Mar-27 20:33N 46°28' W 002°13'9 9.5
2017-Mar-27 19:34N 46°28' W 001°59'8 7.8
2017-Mar-27 18:33N 46°30' W 001°48'0 0.2
2017-Mar-27 17:33N 46°30' W 001°47'2 1.9
2017-Mar-27 16:33N 46°29' W 001°50'8 8.2
2017-Mar-27 15:34N 46°31' W 002°01'9 8.5
2017-Mar-27 14:30N 46°34' W 002°13'16 3.1
2017-Mar-27 09:10N 46°34' W 002°37'2 3.4
2017-Mar-27 08:29N 46°36' W 002°35'6 1.1
2017-Mar-27 03:33N 46°33' W 002°27'3 3.4
2017-Mar-27 02:34N 46°32' W 002°22'2 1.1
2017-Mar-27 00:34N 46°35' W 002°23'3 2.6
2017-Mar-26 23:19N 46°35' W 002°19'4 3.4
2017-Mar-26 22:15N 46°32' W 002°21'2 2.4
2017-Mar-26 21:33N 46°33' W 002°20'3 2.7
2017-Mar-26 20:29N 46°36' W 002°20'8 0.6
2017-Mar-26 07:13N 46°28' W 002°23'6 9.3
2017-Mar-26 06:33N 46°28' W 002°14'9 9.4
2017-Mar-26 05:33N 46°28' W 002°00'9 9.0
2017-Mar-26 04:34N 46°29' W 001°47'1 0.9
2017-Mar-26 03:34N 46°30' W 001°47'2 2.3
2017-Mar-26 02:34N 46°29' W 001°50'9 8.5
2017-Mar-26 01:33N 46°32' W 002°02'9 8.6
2017-Mar-26 00:31N 46°35' W 002°14'8 3.7
2017-Mar-25 22:16N 46°33' W 002°26'3 3.2
2017-Mar-25 21:15N 46°35' W 002°29'  
2017-Mar-23 03:30N 46°28' W 002°18'9 9.4
2017-Mar-23 02:34N 46°29' W 002°05'9 9.2
2017-Mar-23 01:33N 46°29' W 001°52'4 3.5
2017-Mar-23 00:34N 46°30' W 001°47'0 0.2
2017-Mar-22 23:34N 46°30' W 001°47'4 3.6
2017-Mar-22 22:33N 46°29' W 001°53'9 9.1
2017-Mar-22 21:33N 46°31' W 002°06'  

Dump ship's entire track history